sensor_id;sensor_type;location;lat;lon;timestamp;pressure;altitude;pressure_sealevel;temperature;humidity
63351;BME280;64988;51.058;17.040;2023-02-03T00:04:09;100806.31;;;16.65;26.46
63351;BME280;64988;51.058;17.040;2023-02-03T00:09:37;100805.59;;;16.73;26.19
63351;BME280;64988;51.058;17.040;2023-02-03T00:15:05;100803.84;;;16.72;26.17
63351;BME280;64988;51.058;17.040;2023-02-03T00:20:33;100804.00;;;16.80;26.03
63351;BME280;64988;51.058;17.040;2023-02-03T00:26:08;100793.50;;;16.85;26.41
63351;BME280;64988;51.058;17.040;2023-02-03T00:31:36;100798.78;;;16.96;26.47
63351;BME280;64988;51.058;17.040;2023-02-03T00:37:05;100792.88;;;16.91;26.39
63351;BME280;64988;51.058;17.040;2023-02-03T00:42:34;100791.53;;;17.05;26.22
63351;BME280;64988;51.058;17.040;2023-02-03T00:48:02;100782.44;;;17.14;26.53
63351;BME280;64988;51.058;17.040;2023-02-03T00:53:29;100767.47;;;17.27;26.31
63351;BME280;64988;51.058;17.040;2023-02-03T00:58:56;100768.91;;;16.95;27.12
63351;BME280;64988;51.058;17.040;2023-02-03T01:04:24;100768.78;;;16.87;27.30
63351;BME280;64988;51.058;17.040;2023-02-03T01:09:51;100764.41;;;16.76;27.34
63351;BME280;64988;51.058;17.040;2023-02-03T01:15:19;100750.03;;;17.11;27.17
63351;BME280;64988;51.058;17.040;2023-02-03T01:20:47;100735.41;;;17.29;26.79
63351;BME280;64988;51.058;17.040;2023-02-03T01:26:15;100731.56;;;17.67;26.73
63351;BME280;64988;51.058;17.040;2023-02-03T01:31:43;100729.09;;;17.92;26.58
63351;BME280;64988;51.058;17.040;2023-02-03T01:37:11;100704.72;;;17.80;26.73
63351;BME280;64988;51.058;17.040;2023-02-03T01:42:40;100704.13;;;17.69;26.89
63351;BME280;64988;51.058;17.040;2023-02-03T01:48:07;100684.56;;;17.73;27.01
63351;BME280;64988;51.058;17.040;2023-02-03T01:53:35;100664.59;;;17.73;26.99
63351;BME280;64988;51.058;17.040;2023-02-03T01:59:04;100655.06;;;17.77;26.99
63351;BME280;64988;51.058;17.040;2023-02-03T02:04:42;100627.66;;;17.51;27.42
63351;BME280;64988;51.058;17.040;2023-02-03T02:10:14;100618.09;;;17.65;27.40
63351;BME280;64988;51.058;17.040;2023-02-03T02:16:09;100608.75;;;18.19;26.81
63351;BME280;64988;51.058;17.040;2023-02-03T02:21:58;100611.03;;;18.57;26.05
63351;BME280;64988;51.058;17.040;2023-02-03T02:27:46;100606.97;;;18.69;25.83
63351;BME280;64988;51.058;17.040;2023-02-03T02:33:44;100614.91;;;18.88;25.73
63351;BME280;64988;51.058;17.040;2023-02-03T02:39:22;100603.56;;;18.75;25.82
63351;BME280;64988;51.058;17.040;2023-02-03T02:45:00;100597.47;;;18.90;25.66
63351;BME280;64988;51.058;17.040;2023-02-03T02:50:35;100579.91;;;18.24;26.60
63351;BME280;64988;51.058;17.040;2023-02-03T02:56:07;100562.44;;;18.09;27.12
63351;BME280;64988;51.058;17.040;2023-02-03T03:01:37;100539.34;;;18.38;26.54
63351;BME280;64988;51.058;17.040;2023-02-03T03:07:16;100526.31;;;18.81;26.32
63351;BME280;64988;51.058;17.040;2023-02-03T03:12:49;100511.13;;;19.03;25.91
63351;BME280;64988;51.058;17.040;2023-02-03T03:18:22;100496.03;;;18.51;26.47
63351;BME280;64988;51.058;17.040;2023-02-03T03:23:54;100481.94;;;18.46;26.48
63351;BME280;64988;51.058;17.040;2023-02-03T03:29:38;100489.03;;;18.56;26.40
63351;BME280;64988;51.058;17.040;2023-02-03T03:35:07;100491.75;;;18.56;26.47
63351;BME280;64988;51.058;17.040;2023-02-03T03:40:43;100478.16;;;18.38;26.56
63351;BME280;64988;51.058;17.040;2023-02-03T03:46:37;100484.41;;;18.57;26.46
63351;BME280;64988;51.058;17.040;2023-02-03T03:52:08;100479.84;;;19.14;26.20
63351;BME280;64988;51.058;17.040;2023-02-03T04:03:40;100466.69;;;19.01;25.84
63351;BME280;64988;51.058;17.040;2023-02-03T04:09:10;100464.06;;;18.59;26.37
63351;BME280;64988;51.058;17.040;2023-02-03T04:14:37;100457.25;;;18.63;26.34
63351;BME280;64988;51.058;17.040;2023-02-03T04:20:05;100457.78;;;18.83;26.04
63351;BME280;64988;51.058;17.040;2023-02-03T04:25:32;100443.06;;;19.00;25.69
63351;BME280;64988;51.058;17.040;2023-02-03T04:31:00;100431.97;;;18.85;25.46
63351;BME280;64988;51.058;17.040;2023-02-03T04:36:27;100414.03;;;18.67;25.96
63351;BME280;64988;51.058;17.040;2023-02-03T04:41:54;100389.41;;;18.75;25.91
63351;BME280;64988;51.058;17.040;2023-02-03T04:47:21;100388.75;;;17.99;26.90
63351;BME280;64988;51.058;17.040;2023-02-03T04:52:50;100373.88;;;18.67;26.12
63351;BME280;64988;51.058;17.040;2023-02-03T04:58:17;100378.50;;;18.67;25.98
63351;BME280;64988;51.058;17.040;2023-02-03T05:03:44;100368.75;;;18.72;26.55
63351;BME280;64988;51.058;17.040;2023-02-03T05:09:12;100348.88;;;18.95;26.04
63351;BME280;64988;51.058;17.040;2023-02-03T05:14:39;100343.72;;;19.08;25.89
63351;BME280;64988;51.058;17.040;2023-02-03T05:20:07;100354.38;;;18.86;26.24
63351;BME280;64988;51.058;17.040;2023-02-03T05:25:34;100329.75;;;19.88;24.88
63351;BME280;64988;51.058;17.040;2023-02-03T05:31:02;100328.53;;;20.22;24.63
63351;BME280;64988;51.058;17.040;2023-02-03T05:36:29;100313.84;;;20.15;24.68
63351;BME280;64988;51.058;17.040;2023-02-03T05:41:56;100312.78;;;20.47;24.49
63351;BME280;64988;51.058;17.040;2023-02-03T05:47:24;100307.81;;;20.42;25.31
63351;BME280;64988;51.058;17.040;2023-02-03T05:52:53;100300.56;;;20.04;26.32
63351;BME280;64988;51.058;17.040;2023-02-03T05:58:23;100289.53;;;15.94;32.54
63351;BME280;64988;51.058;17.040;2023-02-03T06:03:51;100269.88;;;15.00;34.80
63351;BME280;64988;51.058;17.040;2023-02-03T06:09:18;100265.75;;;14.59;35.47
63351;BME280;64988;51.058;17.040;2023-02-03T06:14:47;100246.22;;;14.83;35.72
63351;BME280;64988;51.058;17.040;2023-02-03T06:20:16;100228.06;;;14.47;37.06
63351;BME280;64988;51.058;17.040;2023-02-03T06:25:46;100219.13;;;14.64;36.71
63351;BME280;64988;51.058;17.040;2023-02-03T06:31:14;100210.78;;;14.75;37.46
63351;BME280;64988;51.058;17.040;2023-02-03T06:36:42;100205.34;;;14.29;38.73
63351;BME280;64988;51.058;17.040;2023-02-03T06:42:10;100185.59;;;14.46;38.99
63351;BME280;64988;51.058;17.040;2023-02-03T06:47:41;100174.38;;;14.12;48.47
63351;BME280;64988;51.058;17.040;2023-02-03T06:53:09;100155.53;;;14.10;40.51
63351;BME280;64988;51.058;17.040;2023-02-03T06:58:37;100144.00;;;13.80;41.23
63351;BME280;64988;51.058;17.040;2023-02-03T07:04:04;100118.69;;;14.08;41.34
63351;BME280;64988;51.058;17.040;2023-02-03T07:09:32;100107.31;;;13.85;41.19
63351;BME280;64988;51.058;17.040;2023-02-03T07:14:59;100102.53;;;15.15;38.96
63351;BME280;64988;51.058;17.040;2023-02-03T07:20:26;100092.47;;;15.08;38.67
63351;BME280;64988;51.058;17.040;2023-02-03T07:25:58;100067.41;;;14.87;39.22
63351;BME280;64988;51.058;17.040;2023-02-03T07:31:26;100039.09;;;14.44;40.05
63351;BME280;64988;51.058;17.040;2023-02-03T07:36:54;100038.63;;;14.22;39.92
63351;BME280;64988;51.058;17.040;2023-02-03T07:42:22;100014.53;;;14.09;40.84
63351;BME280;64988;51.058;17.040;2023-02-03T07:47:51;100008.91;;;14.20;40.65
63351;BME280;64988;51.058;17.040;2023-02-03T07:53:18;99989.31;;;14.26;40.53
63351;BME280;64988;51.058;17.040;2023-02-03T07:58:44;99961.06;;;14.64;39.22
63351;BME280;64988;51.058;17.040;2023-02-03T08:04:12;99959.22;;;14.47;39.92
63351;BME280;64988;51.058;17.040;2023-02-03T08:09:42;99942.09;;;15.07;39.63
63351;BME280;64988;51.058;17.040;2023-02-03T08:15:09;99930.31;;;14.81;39.41
63351;BME280;64988;51.058;17.040;2023-02-03T08:20:37;99912.06;;;14.73;39.88
63351;BME280;64988;51.058;17.040;2023-02-03T08:26:11;99890.19;;;14.75;39.68
63351;BME280;64988;51.058;17.040;2023-02-03T08:31:41;99882.84;;;15.70;38.26
63351;BME280;64988;51.058;17.040;2023-02-03T08:37:10;99868.13;;;15.89;38.05
63351;BME280;64988;51.058;17.040;2023-02-03T08:42:37;99857.84;;;15.67;38.48
63351;BME280;64988;51.058;17.040;2023-02-03T08:48:06;99848.44;;;16.11;37.16
63351;BME280;64988;51.058;17.040;2023-02-03T08:53:33;99817.88;;;15.34;38.79
63351;BME280;64988;51.058;17.040;2023-02-03T08:59:00;99818.75;;;15.42;39.30
63351;BME280;64988;51.058;17.040;2023-02-03T09:04:28;99818.03;;;16.80;37.66
63351;BME280;64988;51.058;17.040;2023-02-03T09:09:56;99804.22;;;16.90;35.83
63351;BME280;64988;51.058;17.040;2023-02-03T09:15:23;99794.72;;;20.87;31.88
63351;BME280;64988;51.058;17.040;2023-02-03T09:20:51;99780.19;;;19.08;32.31
63351;BME280;64988;51.058;17.040;2023-02-03T09:26:18;99765.66;;;19.07;33.04
63351;BME280;64988;51.058;17.040;2023-02-03T09:31:48;99748.34;;;19.65;32.99
63351;BME280;64988;51.058;17.040;2023-02-03T09:37:19;99740.66;;;20.32;32.93
63351;BME280;64988;51.058;17.040;2023-02-03T09:43:06;99721.97;;;19.79;32.50
63351;BME280;64988;51.058;17.040;2023-02-03T09:48:43;99701.38;;;20.04;32.95
63351;BME280;64988;51.058;17.040;2023-02-03T09:54:25;99700.41;;;20.33;32.95
63351;BME280;64988;51.058;17.040;2023-02-03T09:59:58;99689.19;;;20.28;32.74
63351;BME280;64988;51.058;17.040;2023-02-03T10:17:32;99632.69;;;19.42;33.67
63351;BME280;64988;51.058;17.040;2023-02-03T10:23:06;99615.34;;;19.35;33.50
63351;BME280;64988;51.058;17.040;2023-02-03T10:28:40;99582.59;;;19.27;33.30
63351;BME280;64988;51.058;17.040;2023-02-03T10:34:13;99557.78;;;19.28;33.92
63351;BME280;64988;51.058;17.040;2023-02-03T10:45:10;99523.09;;;19.35;33.88
63351;BME280;64988;51.058;17.040;2023-02-03T10:50:42;99498.81;;;19.26;34.26
63351;BME280;64988;51.058;17.040;2023-02-03T10:56:13;99481.56;;;19.25;34.24
63351;BME280;64988;51.058;17.040;2023-02-03T11:01:47;99474.53;;;19.37;33.73
63351;BME280;64988;51.058;17.040;2023-02-03T11:07:25;99456.66;;;19.63;33.84
63351;BME280;64988;51.058;17.040;2023-02-03T11:18:40;99410.44;;;19.25;34.12
63351;BME280;64988;51.058;17.040;2023-02-03T11:24:19;99395.06;;;19.80;34.49
63351;BME280;64988;51.058;17.040;2023-02-03T11:29:50;99380.75;;;19.84;34.25
63351;BME280;64988;51.058;17.040;2023-02-03T11:35:23;99367.03;;;19.84;34.44
63351;BME280;64988;51.058;17.040;2023-02-03T11:40:57;99350.06;;;20.02;34.15
63351;BME280;64988;51.058;17.040;2023-02-03T11:46:26;99337.34;;;19.81;34.25
63351;BME280;64988;51.058;17.040;2023-02-03T11:52:34;99322.06;;;20.13;33.80
63351;BME280;64988;51.058;17.040;2023-02-03T12:15:34;99272.47;;;20.75;33.72
63351;BME280;64988;51.058;17.040;2023-02-03T12:33:01;99228.53;;;21.21;33.80
63351;BME280;64988;51.058;17.040;2023-02-03T12:38:39;99205.41;;;21.55;33.62
63351;BME280;64988;51.058;17.040;2023-02-03T12:44:56;99206.38;;;21.74;33.45
63351;BME280;64988;51.058;17.040;2023-02-03T12:56:42;99170.19;;;22.21;33.48
63351;BME280;64988;51.058;17.040;2023-02-03T13:02:19;99170.28;;;22.08;33.01
63351;BME280;64988;51.058;17.040;2023-02-03T13:07:58;99159.31;;;22.58;33.15
63351;BME280;64988;51.058;17.040;2023-02-03T13:13:41;99147.19;;;22.16;33.19
63351;BME280;64988;51.058;17.040;2023-02-03T13:19:17;99145.88;;;22.18;33.51
63351;BME280;64988;51.058;17.040;2023-02-03T13:24:59;99151.38;;;21.87;34.04
63351;BME280;64988;51.058;17.040;2023-02-03T13:47:45;99176.28;;;20.51;37.01
63351;BME280;64988;51.058;17.040;2023-02-03T13:53:18;99165.56;;;21.33;36.12
63351;BME280;64988;51.058;17.040;2023-02-03T13:59:05;99170.84;;;21.41;35.81
63351;BME280;64988;51.058;17.040;2023-02-03T14:15:40;99224.78;;;20.89;35.51
63351;BME280;64988;51.058;17.040;2023-02-03T14:21:11;99208.47;;;21.21;34.83
63351;BME280;64988;51.058;17.040;2023-02-03T14:26:44;99213.50;;;21.37;34.64
63351;BME280;64988;51.058;17.040;2023-02-03T14:32:13;99225.06;;;21.52;34.21
63351;BME280;64988;51.058;17.040;2023-02-03T14:37:50;99229.53;;;21.46;33.91
63351;BME280;64988;51.058;17.040;2023-02-03T14:43:26;99237.97;;;21.52;33.54
63351;BME280;64988;51.058;17.040;2023-02-03T15:06:03;99269.28;;;20.65;33.47
63351;BME280;64988;51.058;17.040;2023-02-03T15:11:32;99273.09;;;20.51;33.47
63351;BME280;64988;51.058;17.040;2023-02-03T15:17:10;99268.97;;;20.08;33.71
63351;BME280;64988;51.058;17.040;2023-02-03T15:22:38;99275.56;;;20.33;33.70
63351;BME280;64988;51.058;17.040;2023-02-03T15:28:13;99278.78;;;20.50;33.42
63351;BME280;64988;51.058;17.040;2023-02-03T15:33:49;99269.72;;;20.88;32.65
63351;BME280;64988;51.058;17.040;2023-02-03T15:45:27;99258.28;;;20.39;33.68
63351;BME280;64988;51.058;17.040;2023-02-03T15:51:13;99291.44;;;20.44;33.14
63351;BME280;64988;51.058;17.040;2023-02-03T15:56:56;99292.22;;;19.77;34.32
63351;BME280;64988;51.058;17.040;2023-02-03T16:02:30;99297.44;;;20.20;33.59
63351;BME280;64988;51.058;17.040;2023-02-03T16:08:26;99302.38;;;19.43;34.84
63351;BME280;64988;51.058;17.040;2023-02-03T16:14:03;99309.97;;;19.19;35.13
63351;BME280;64988;51.058;17.040;2023-02-03T16:19:33;99305.72;;;19.79;34.11
63351;BME280;64988;51.058;17.040;2023-02-03T16:25:24;99324.19;;;19.64;34.21
63351;BME280;64988;51.058;17.040;2023-02-03T16:31:22;99338.59;;;19.17;34.54
63351;BME280;64988;51.058;17.040;2023-02-03T16:37:29;99362.19;;;18.97;35.27
63351;BME280;64988;51.058;17.040;2023-02-03T16:43:16;99379.59;;;18.89;35.45
63351;BME280;64988;51.058;17.040;2023-02-03T16:49:03;99381.47;;;18.88;35.01
63351;BME280;64988;51.058;17.040;2023-02-03T16:54:50;99395.09;;;18.46;35.13
63351;BME280;64988;51.058;17.040;2023-02-03T17:00:19;99407.16;;;18.52;34.52
63351;BME280;64988;51.058;17.040;2023-02-03T17:05:51;99410.41;;;18.76;34.30
63351;BME280;64988;51.058;17.040;2023-02-03T17:11:22;99412.31;;;19.04;33.90
63351;BME280;64988;51.058;17.040;2023-02-03T17:16:51;99416.09;;;18.81;33.92
63351;BME280;64988;51.058;17.040;2023-02-03T17:22:20;99415.59;;;18.93;33.40
63351;BME280;64988;51.058;17.040;2023-02-03T17:27:48;99415.78;;;18.91;33.44
63351;BME280;64988;51.058;17.040;2023-02-03T17:33:16;99420.41;;;18.91;33.48
63351;BME280;64988;51.058;17.040;2023-02-03T17:38:48;99415.78;;;19.12;32.93
63351;BME280;64988;51.058;17.040;2023-02-03T17:44:34;99426.69;;;19.33;32.90
63351;BME280;64988;51.058;17.040;2023-02-03T17:50:20;99428.22;;;18.94;33.33
63351;BME280;64988;51.058;17.040;2023-02-03T17:56:07;99434.09;;;19.12;33.66
63351;BME280;64988;51.058;17.040;2023-02-03T18:01:35;99446.72;;;18.70;34.16
63351;BME280;64988;51.058;17.040;2023-02-03T18:07:04;99436.47;;;18.43;34.56
63351;BME280;64988;51.058;17.040;2023-02-03T18:12:31;99436.56;;;18.85;35.13
63351;BME280;64988;51.058;17.040;2023-02-03T18:17:59;99435.00;;;18.76;34.98
63351;BME280;64988;51.058;17.040;2023-02-03T18:23:28;99434.00;;;18.84;34.69
63351;BME280;64988;51.058;17.040;2023-02-03T18:28:55;99427.50;;;18.85;34.59
63351;BME280;64988;51.058;17.040;2023-02-03T18:34:24;99437.44;;;18.71;34.52
63351;BME280;64988;51.058;17.040;2023-02-03T18:39:53;99424.66;;;18.93;34.50
63351;BME280;64988;51.058;17.040;2023-02-03T18:45:21;99425.28;;;18.23;35.11
63351;BME280;64988;51.058;17.040;2023-02-03T18:50:49;99433.25;;;19.39;34.03
63351;BME280;64988;51.058;17.040;2023-02-03T18:56:19;99440.00;;;18.94;34.61
63351;BME280;64988;51.058;17.040;2023-02-03T19:01:49;99450.34;;;19.20;34.14
63351;BME280;64988;51.058;17.040;2023-02-03T19:07:17;99449.97;;;19.02;34.35
63351;BME280;64988;51.058;17.040;2023-02-03T19:12:45;99453.34;;;19.25;33.70
63351;BME280;64988;51.058;17.040;2023-02-03T19:18:13;99443.78;;;19.14;33.99
63351;BME280;64988;51.058;17.040;2023-02-03T19:23:42;99453.56;;;18.16;35.65
63351;BME280;64988;51.058;17.040;2023-02-03T19:29:15;99460.97;;;19.51;34.17
63351;BME280;64988;51.058;17.040;2023-02-03T19:34:46;99467.25;;;19.45;33.91
63351;BME280;64988;51.058;17.040;2023-02-03T19:40:19;99442.63;;;19.45;33.75
63351;BME280;64988;51.058;17.040;2023-02-03T19:45:49;99428.03;;;18.95;34.61
63351;BME280;64988;51.058;17.040;2023-02-03T19:51:23;99438.66;;;19.05;34.14
63351;BME280;64988;51.058;17.040;2023-02-03T19:56:55;99449.44;;;18.70;35.02
63351;BME280;64988;51.058;17.040;2023-02-03T20:02:26;99434.75;;;18.93;35.01
63351;BME280;64988;51.058;17.040;2023-02-03T20:07:59;99442.53;;;18.74;35.18
63351;BME280;64988;51.058;17.040;2023-02-03T20:13:33;99442.00;;;19.77;34.00
63351;BME280;64988;51.058;17.040;2023-02-03T20:19:05;99451.13;;;19.14;35.19
63351;BME280;64988;51.058;17.040;2023-02-03T20:24:36;99451.53;;;18.90;35.54
63351;BME280;64988;51.058;17.040;2023-02-03T20:30:09;99456.88;;;19.68;34.09
63351;BME280;64988;51.058;17.040;2023-02-03T20:35:37;99459.94;;;18.88;35.96
63351;BME280;64988;51.058;17.040;2023-02-03T20:41:10;99452.38;;;19.11;35.30
63351;BME280;64988;51.058;17.040;2023-02-03T20:46:40;99452.69;;;19.23;35.90
63351;BME280;64988;51.058;17.040;2023-02-03T20:52:16;99443.06;;;18.63;37.08
63351;BME280;64988;51.058;17.040;2023-02-03T20:57:49;99439.09;;;18.87;36.86
63351;BME280;64988;51.058;17.040;2023-02-03T21:03:20;99452.97;;;19.07;36.41
63351;BME280;64988;51.058;17.040;2023-02-03T21:09:18;99433.28;;;18.75;36.55
63351;BME280;64988;51.058;17.040;2023-02-03T21:14:47;99440.31;;;18.63;36.61
63351;BME280;64988;51.058;17.040;2023-02-03T21:20:33;99429.25;;;18.71;36.93
63351;BME280;64988;51.058;17.040;2023-02-03T21:26:15;99434.84;;;19.27;35.72
63351;BME280;64988;51.058;17.040;2023-02-03T21:31:44;99426.06;;;19.10;35.62
63351;BME280;64988;51.058;17.040;2023-02-03T21:37:35;99431.97;;;18.50;36.98
63351;BME280;64988;51.058;17.040;2023-02-03T21:43:15;99425.03;;;18.69;37.04
63351;BME280;64988;51.058;17.040;2023-02-03T21:48:53;99427.94;;;18.17;37.91
63351;BME280;64988;51.058;17.040;2023-02-03T21:54:30;99440.19;;;18.71;37.12
63351;BME280;64988;51.058;17.040;2023-02-03T21:59:59;99434.84;;;18.49;37.33
63351;BME280;64988;51.058;17.040;2023-02-03T22:05:27;99431.22;;;18.99;36.36
63351;BME280;64988;51.058;17.040;2023-02-03T22:10:54;99434.84;;;18.49;37.36
63351;BME280;64988;51.058;17.040;2023-02-03T22:16:21;99434.19;;;18.47;37.98
63351;BME280;64988;51.058;17.040;2023-02-03T22:21:49;99431.03;;;18.79;36.99
63351;BME280;64988;51.058;17.040;2023-02-03T22:27:18;99428.69;;;18.25;38.08
63351;BME280;64988;51.058;17.040;2023-02-03T22:32:46;99427.25;;;18.44;37.33
63351;BME280;64988;51.058;17.040;2023-02-03T22:38:14;99419.28;;;18.28;37.68
63351;BME280;64988;51.058;17.040;2023-02-03T22:43:41;99428.00;;;19.37;36.16
63351;BME280;64988;51.058;17.040;2023-02-03T22:49:08;99432.25;;;18.41;37.76
63351;BME280;64988;51.058;17.040;2023-02-03T22:54:36;99422.97;;;17.91;38.30
63351;BME280;64988;51.058;17.040;2023-02-03T23:00:07;99415.91;;;18.62;37.05
63351;BME280;64988;51.058;17.040;2023-02-03T23:05:38;99422.56;;;18.38;37.67
63351;BME280;64988;51.058;17.040;2023-02-03T23:11:05;99414.59;;;18.07;39.41
63351;BME280;64988;51.058;17.040;2023-02-03T23:16:32;99410.03;;;18.65;38.76
63351;BME280;64988;51.058;17.040;2023-02-03T23:21:59;99415.78;;;18.34;39.37
63351;BME280;64988;51.058;17.040;2023-02-03T23:27:27;99398.41;;;18.06;39.73
63351;BME280;64988;51.058;17.040;2023-02-03T23:32:55;99418.34;;;18.21;39.28
63351;BME280;64988;51.058;17.040;2023-02-03T23:38:22;99415.59;;;18.21;39.38
63351;BME280;64988;51.058;17.040;2023-02-03T23:43:50;99431.94;;;17.70;40.89
63351;BME280;64988;51.058;17.040;2023-02-03T23:49:17;99443.31;;;17.37;39.99
63351;BME280;64988;51.058;17.040;2023-02-03T23:54:45;99492.19;;;17.01;41.09
